sensor_id;sensor_type;location;lat;lon;timestamp;temperature;humidity
67572;SHT31;54397;47.506;19.158;2023-03-26T00:00:12;11.65;58.88
67572;SHT31;54397;47.506;19.158;2023-03-26T00:03:37;11.46;59.38
67572;SHT31;54397;47.506;19.158;2023-03-26T00:06:59;11.31;59.23
67572;SHT31;54397;47.506;19.158;2023-03-26T00:10:23;11.43;59.50
67572;SHT31;54397;47.506;19.158;2023-03-26T00:13:47;11.48;59.13
67572;SHT31;54397;47.506;19.158;2023-03-26T00:17:09;11.46;58.40
67572;SHT31;54397;47.506;19.158;2023-03-26T00:20:31;11.72;58.27
67572;SHT31;54397;47.506;19.158;2023-03-26T00:24:03;11.75;58.56
67572;SHT31;54397;47.506;19.158;2023-03-26T00:27:26;11.77;57.82
67572;SHT31;54397;47.506;19.158;2023-03-26T00:30:55;11.58;58.21
67572;SHT31;54397;47.506;19.158;2023-03-26T00:34:19;10.84;60.16
67572;SHT31;54397;47.506;19.158;2023-03-26T00:37:43;11.03;60.19
67572;SHT31;54397;47.506;19.158;2023-03-26T00:41:08;10.93;59.75
67572;SHT31;54397;47.506;19.158;2023-03-26T00:44:40;11.39;58.87
67572;SHT31;54397;47.506;19.158;2023-03-26T00:48:02;11.38;58.57
67572;SHT31;54397;47.506;19.158;2023-03-26T00:51:29;11.62;58.29
67572;SHT31;54397;47.506;19.158;2023-03-26T00:54:51;11.48;58.42
67572;SHT31;54397;47.506;19.158;2023-03-26T00:58:14;11.49;58.56
67572;SHT31;54397;47.506;19.158;2023-03-26T01:01:37;11.67;58.20
67572;SHT31;54397;47.506;19.158;2023-03-26T01:08:56;11.19;59.84
67572;SHT31;54397;47.506;19.158;2023-03-26T01:12:23;11.45;59.33
67572;SHT31;54397;47.506;19.158;2023-03-26T01:15:45;11.36;58.89
67572;SHT31;54397;47.506;19.158;2023-03-26T01:23:01;11.52;59.08
67572;SHT31;54397;47.506;19.158;2023-03-26T01:30:39;11.42;59.56
67572;SHT31;54397;47.506;19.158;2023-03-26T01:41:56;11.48;59.34
67572;SHT31;54397;47.506;19.158;2023-03-26T01:45:26;11.31;59.59
67572;SHT31;54397;47.506;19.158;2023-03-26T01:48:51;11.24;60.22
67572;SHT31;54397;47.506;19.158;2023-03-26T01:52:20;11.12;61.01
67572;SHT31;54397;47.506;19.158;2023-03-26T02:06:43;10.73;62.42
67572;SHT31;54397;47.506;19.158;2023-03-26T02:10:29;10.60;62.69
67572;SHT31;54397;47.506;19.158;2023-03-26T02:13:51;10.64;63.10
67572;SHT31;54397;47.506;19.158;2023-03-26T02:17:13;10.52;63.34
67572;SHT31;54397;47.506;19.158;2023-03-26T02:20:35;10.49;63.71
67572;SHT31;54397;47.506;19.158;2023-03-26T02:24:02;10.49;63.19
67572;SHT31;54397;47.506;19.158;2023-03-26T02:27:24;10.53;62.81
67572;SHT31;54397;47.506;19.158;2023-03-26T02:30:48;10.57;63.18
67572;SHT31;54397;47.506;19.158;2023-03-26T02:34:10;10.36;64.07
67572;SHT31;54397;47.506;19.158;2023-03-26T02:37:34;10.23;64.30
67572;SHT31;54397;47.506;19.158;2023-03-26T02:40:58;10.18;64.43
67572;SHT31;54397;47.506;19.158;2023-03-26T02:44:20;10.21;64.43
67572;SHT31;54397;47.506;19.158;2023-03-26T02:47:42;10.26;64.09
67572;SHT31;54397;47.506;19.158;2023-03-26T02:51:04;10.19;64.00
67572;SHT31;54397;47.506;19.158;2023-03-26T02:54:28;10.21;64.54
67572;SHT31;54397;47.506;19.158;2023-03-26T02:57:50;10.29;64.10
67572;SHT31;54397;47.506;19.158;2023-03-26T03:01:16;10.29;64.54
67572;SHT31;54397;47.506;19.158;2023-03-26T03:04:41;10.19;64.76
67572;SHT31;54397;47.506;19.158;2023-03-26T03:08:04;10.14;64.56
67572;SHT31;54397;47.506;19.158;2023-03-26T03:11:26;10.22;64.51
67572;SHT31;54397;47.506;19.158;2023-03-26T03:14:50;10.11;64.57
67572;SHT31;54397;47.506;19.158;2023-03-26T03:18:12;10.08;64.46
67572;SHT31;54397;47.506;19.158;2023-03-26T03:21:34;10.15;64.55
67572;SHT31;54397;47.506;19.158;2023-03-26T03:24:56;9.95;65.26
67572;SHT31;54397;47.506;19.158;2023-03-26T03:28:22;9.78;65.89
67572;SHT31;54397;47.506;19.158;2023-03-26T03:31:46;9.57;66.44
67572;SHT31;54397;47.506;19.158;2023-03-26T03:35:10;9.56;66.96
67572;SHT31;54397;47.506;19.158;2023-03-26T03:38:34;9.33;67.95
67572;SHT31;54397;47.506;19.158;2023-03-26T03:41:55;9.51;66.99
67572;SHT31;54397;47.506;19.158;2023-03-26T03:45:22;9.83;65.42
67572;SHT31;54397;47.506;19.158;2023-03-26T03:48:46;10.04;64.70
67572;SHT31;54397;47.506;19.158;2023-03-26T03:52:13;9.85;64.44
67572;SHT31;54397;47.506;19.158;2023-03-26T03:55:35;9.78;65.36
67572;SHT31;54397;47.506;19.158;2023-03-26T03:58:58;9.74;66.03
67572;SHT31;54397;47.506;19.158;2023-03-26T04:02:22;9.67;66.36
67572;SHT31;54397;47.506;19.158;2023-03-26T04:05:55;9.61;66.18
67572;SHT31;54397;47.506;19.158;2023-03-26T04:09:17;9.69;65.99
67572;SHT31;54397;47.506;19.158;2023-03-26T04:12:39;9.85;64.94
67572;SHT31;54397;47.506;19.158;2023-03-26T04:16:04;9.73;65.82
67572;SHT31;54397;47.506;19.158;2023-03-26T04:19:28;9.83;64.92
67572;SHT31;54397;47.506;19.158;2023-03-26T04:22:49;9.73;64.69
67572;SHT31;54397;47.506;19.158;2023-03-26T04:26:14;9.75;65.17
67572;SHT31;54397;47.506;19.158;2023-03-26T04:29:40;9.60;65.54
67572;SHT31;54397;47.506;19.158;2023-03-26T04:33:07;9.70;65.49
67572;SHT31;54397;47.506;19.158;2023-03-26T04:36:33;9.51;66.47
67572;SHT31;54397;47.506;19.158;2023-03-26T04:39:57;9.33;66.72
67572;SHT31;54397;47.506;19.158;2023-03-26T04:43:19;9.33;66.28
67572;SHT31;54397;47.506;19.158;2023-03-26T04:46:41;9.36;66.20
67572;SHT31;54397;47.506;19.158;2023-03-26T04:50:07;9.58;65.15
67572;SHT31;54397;47.506;19.158;2023-03-26T04:53:33;9.78;64.84
67572;SHT31;54397;47.506;19.158;2023-03-26T04:56:58;10.02;64.16
67572;SHT31;54397;47.506;19.158;2023-03-26T05:00:21;10.11;64.25
67572;SHT31;54397;47.506;19.158;2023-03-26T05:03:48;9.95;65.00
67572;SHT31;54397;47.506;19.158;2023-03-26T05:07:15;9.94;64.74
67572;SHT31;54397;47.506;19.158;2023-03-26T05:10:37;9.93;65.11
67572;SHT31;54397;47.506;19.158;2023-03-26T05:14:02;10.12;64.38
67572;SHT31;54397;47.506;19.158;2023-03-26T05:17:23;10.29;63.64
67572;SHT31;54397;47.506;19.158;2023-03-26T05:20:45;10.79;61.41
67572;SHT31;54397;47.506;19.158;2023-03-26T05:24:07;11.07;60.24
67572;SHT31;54397;47.506;19.158;2023-03-26T05:27:28;11.32;60.04
67572;SHT31;54397;47.506;19.158;2023-03-26T05:30:53;11.40;59.95
67572;SHT31;54397;47.506;19.158;2023-03-26T05:34:16;11.62;59.79
67572;SHT31;54397;47.506;19.158;2023-03-26T05:37:40;11.67;59.46
67572;SHT31;54397;47.506;19.158;2023-03-26T05:41:04;12.03;59.21
67572;SHT31;54397;47.506;19.158;2023-03-26T05:44:26;12.00;57.83
67572;SHT31;54397;47.506;19.158;2023-03-26T05:47:48;12.27;57.47
67572;SHT31;54397;47.506;19.158;2023-03-26T05:51:14;12.27;57.77
67572;SHT31;54397;47.506;19.158;2023-03-26T05:54:36;12.63;56.87
67572;SHT31;54397;47.506;19.158;2023-03-26T05:57:58;12.95;55.88
67572;SHT31;54397;47.506;19.158;2023-03-26T06:01:19;12.97;55.40
67572;SHT31;54397;47.506;19.158;2023-03-26T06:04:46;13.07;55.33
67572;SHT31;54397;47.506;19.158;2023-03-26T06:08:08;13.23;54.68
67572;SHT31;54397;47.506;19.158;2023-03-26T06:11:30;13.18;55.52
67572;SHT31;54397;47.506;19.158;2023-03-26T06:14:55;13.28;55.98
67572;SHT31;54397;47.506;19.158;2023-03-26T06:18:16;13.76;54.25
67572;SHT31;54397;47.506;19.158;2023-03-26T06:21:39;13.85;53.20
67572;SHT31;54397;47.506;19.158;2023-03-26T06:25:00;13.81;52.69
67572;SHT31;54397;47.506;19.158;2023-03-26T06:28:22;14.05;52.47
67572;SHT31;54397;47.506;19.158;2023-03-26T06:31:44;14.54;52.00
67572;SHT31;54397;47.506;19.158;2023-03-26T06:35:09;14.58;51.23
67572;SHT31;54397;47.506;19.158;2023-03-26T06:38:31;14.44;51.41
67572;SHT31;54397;47.506;19.158;2023-03-26T06:41:53;14.85;50.35
67572;SHT31;54397;47.506;19.158;2023-03-26T06:45:15;14.30;52.29
67572;SHT31;54397;47.506;19.158;2023-03-26T06:48:37;14.58;51.50
67572;SHT31;54397;47.506;19.158;2023-03-26T06:51:59;15.03;49.68
67572;SHT31;54397;47.506;19.158;2023-03-26T06:55:26;14.41;51.30
67572;SHT31;54397;47.506;19.158;2023-03-26T06:58:50;14.88;50.62
67572;SHT31;54397;47.506;19.158;2023-03-26T07:02:11;15.30;49.63
67572;SHT31;54397;47.506;19.158;2023-03-26T07:05:36;15.30;49.32
67572;SHT31;54397;47.506;19.158;2023-03-26T07:08:57;15.46;49.05
67572;SHT31;54397;47.506;19.158;2023-03-26T07:12:21;16.18;47.72
67572;SHT31;54397;47.506;19.158;2023-03-26T07:15:46;16.85;46.34
67572;SHT31;54397;47.506;19.158;2023-03-26T07:19:10;16.04;46.54
67572;SHT31;54397;47.506;19.158;2023-03-26T07:22:32;15.81;48.01
67572;SHT31;54397;47.506;19.158;2023-03-26T07:25:54;16.02;48.09
67572;SHT31;54397;47.506;19.158;2023-03-26T07:29:44;16.92;46.64
67572;SHT31;54397;47.506;19.158;2023-03-26T07:33:17;17.55;45.10
67572;SHT31;54397;47.506;19.158;2023-03-26T07:37:06;17.12;45.55
67572;SHT31;54397;47.506;19.158;2023-03-26T07:40:45;16.42;45.53
67572;SHT31;54397;47.506;19.158;2023-03-26T07:44:28;15.93;47.43
67572;SHT31;54397;47.506;19.158;2023-03-26T07:47:58;16.29;47.36
67572;SHT31;54397;47.506;19.158;2023-03-26T07:51:23;16.80;47.37
67572;SHT31;54397;47.506;19.158;2023-03-26T07:54:45;17.29;45.90
67572;SHT31;54397;47.506;19.158;2023-03-26T08:06:18;18.01;43.48
67572;SHT31;54397;47.506;19.158;2023-03-26T08:17:16;15.95;46.96
67572;SHT31;54397;47.506;19.158;2023-03-26T08:20:46;15.77;47.11
67572;SHT31;54397;47.506;19.158;2023-03-26T08:24:19;16.45;45.64
67572;SHT31;54397;47.506;19.158;2023-03-26T08:31:51;16.38;44.45
67572;SHT31;54397;47.506;19.158;2023-03-26T08:35:18;16.26;44.22
67572;SHT31;54397;47.506;19.158;2023-03-26T08:38:39;16.15;45.81
67572;SHT31;54397;47.506;19.158;2023-03-26T09:02:57;15.47;47.50
67572;SHT31;54397;47.506;19.158;2023-03-26T09:36:17;16.13;45.76
67572;SHT31;54397;47.506;19.158;2023-03-26T09:47:41;16.67;43.77
67572;SHT31;54397;47.506;19.158;2023-03-26T09:54:51;17.42;42.20
67572;SHT31;54397;47.506;19.158;2023-03-26T09:58:45;17.87;40.82
67572;SHT31;54397;47.506;19.158;2023-03-26T10:13:13;18.59;37.95
67572;SHT31;54397;47.506;19.158;2023-03-26T10:16:54;18.90;39.77
67572;SHT31;54397;47.506;19.158;2023-03-26T10:20:45;19.00;38.63
67572;SHT31;54397;47.506;19.158;2023-03-26T10:31:02;17.07;42.24
67572;SHT31;54397;47.506;19.158;2023-03-26T10:53:53;14.57;59.15
67572;SHT31;54397;47.506;19.158;2023-03-26T10:57:28;14.84;59.86
67572;SHT31;54397;47.506;19.158;2023-03-26T11:00:58;16.09;56.37
67572;SHT31;54397;47.506;19.158;2023-03-26T11:04:46;16.77;54.89
67572;SHT31;54397;47.506;19.158;2023-03-26T11:08:17;17.39;52.60
67572;SHT31;54397;47.506;19.158;2023-03-26T11:15:58;17.80;47.17
67572;SHT31;54397;47.506;19.158;2023-03-26T11:19:30;17.39;47.80
67572;SHT31;54397;47.506;19.158;2023-03-26T11:33:56;17.42;48.67
67572;SHT31;54397;47.506;19.158;2023-03-26T11:37:31;17.87;48.01
67572;SHT31;54397;47.506;19.158;2023-03-26T11:40:55;17.96;46.62
67572;SHT31;54397;47.506;19.158;2023-03-26T11:44:33;17.65;47.06
67572;SHT31;54397;47.506;19.158;2023-03-26T11:48:12;17.73;46.07
67572;SHT31;54397;47.506;19.158;2023-03-26T11:51:40;18.41;45.71
67572;SHT31;54397;47.506;19.158;2023-03-26T11:55:03;19.44;43.96
67572;SHT31;54397;47.506;19.158;2023-03-26T12:05:47;19.62;40.69
67572;SHT31;54397;47.506;19.158;2023-03-26T12:09:18;20.36;40.61
67572;SHT31;54397;47.506;19.158;2023-03-26T12:12:41;20.67;39.59
67572;SHT31;54397;47.506;19.158;2023-03-26T12:16:16;20.95;41.01
67572;SHT31;54397;47.506;19.158;2023-03-26T12:19:43;20.52;38.76
67572;SHT31;54397;47.506;19.158;2023-03-26T12:23:50;19.95;39.19
67572;SHT31;54397;47.506;19.158;2023-03-26T12:31:03;19.82;39.85
67572;SHT31;54397;47.506;19.158;2023-03-26T12:34:30;19.53;39.10
67572;SHT31;54397;47.506;19.158;2023-03-26T12:41:39;18.73;41.04
67572;SHT31;54397;47.506;19.158;2023-03-26T12:45:28;18.92;40.13
67572;SHT31;54397;47.506;19.158;2023-03-26T12:48:54;18.95;40.40
67572;SHT31;54397;47.506;19.158;2023-03-26T12:52:26;18.89;39.48
67572;SHT31;54397;47.506;19.158;2023-03-26T12:56:02;18.73;40.38
67572;SHT31;54397;47.506;19.158;2023-03-26T13:03:34;18.92;40.14
67572;SHT31;54397;47.506;19.158;2023-03-26T13:07:20;18.45;41.23
67572;SHT31;54397;47.506;19.158;2023-03-26T13:18:43;18.35;36.33
67572;SHT31;54397;47.506;19.158;2023-03-26T13:22:16;18.45;35.87
67572;SHT31;54397;47.506;19.158;2023-03-26T13:29:37;19.02;36.06
67572;SHT31;54397;47.506;19.158;2023-03-26T13:36:50;18.61;35.58
67572;SHT31;54397;47.506;19.158;2023-03-26T13:48:24;18.44;36.78
67572;SHT31;54397;47.506;19.158;2023-03-26T13:55:29;18.21;37.02
67572;SHT31;54397;47.506;19.158;2023-03-26T13:58:58;18.21;36.52
67572;SHT31;54397;47.506;19.158;2023-03-26T14:02:36;18.18;36.41
67572;SHT31;54397;47.506;19.158;2023-03-26T14:06:04;18.15;36.82
67572;SHT31;54397;47.506;19.158;2023-03-26T14:09:52;18.37;36.09
67572;SHT31;54397;47.506;19.158;2023-03-26T14:13:23;18.59;34.45
67572;SHT31;54397;47.506;19.158;2023-03-26T14:16:50;18.41;33.71
67572;SHT31;54397;47.506;19.158;2023-03-26T14:24:03;18.40;34.82
67572;SHT31;54397;47.506;19.158;2023-03-26T14:35:11;18.58;34.01
67572;SHT31;54397;47.506;19.158;2023-03-26T14:42:41;18.52;34.00
67572;SHT31;54397;47.506;19.158;2023-03-26T14:53:32;18.79;34.03
67572;SHT31;54397;47.506;19.158;2023-03-26T15:42:04;18.03;34.36
67572;SHT31;54397;47.506;19.158;2023-03-26T15:52:37;17.70;36.30
67572;SHT31;54397;47.506;19.158;2023-03-26T15:56:24;17.63;36.60
67572;SHT31;54397;47.506;19.158;2023-03-26T15:59:59;17.65;36.57
67572;SHT31;54397;47.506;19.158;2023-03-26T16:03:39;17.50;36.63
67572;SHT31;54397;47.506;19.158;2023-03-26T16:10:56;17.32;36.72
67572;SHT31;54397;47.506;19.158;2023-03-26T16:21:40;17.01;37.58
67572;SHT31;54397;47.506;19.158;2023-03-26T16:32:40;16.71;37.98
67572;SHT31;54397;47.506;19.158;2023-03-26T16:36:13;16.66;38.26
67572;SHT31;54397;47.506;19.158;2023-03-26T16:39:42;16.64;37.99
67572;SHT31;54397;47.506;19.158;2023-03-26T16:46:52;16.36;38.81
67572;SHT31;54397;47.506;19.158;2023-03-26T16:57:29;16.34;41.59
67572;SHT31;54397;47.506;19.158;2023-03-26T17:01:10;16.63;43.92
67572;SHT31;54397;47.506;19.158;2023-03-26T17:04:44;16.92;44.03
67572;SHT31;54397;47.506;19.158;2023-03-26T17:08:20;17.00;44.38
67572;SHT31;54397;47.506;19.158;2023-03-26T17:12:41;17.15;42.67
67572;SHT31;54397;47.506;19.158;2023-03-26T17:26:43;16.16;40.61
67572;SHT31;54397;47.506;19.158;2023-03-26T17:33:44;16.00;40.76
67572;SHT31;54397;47.506;19.158;2023-03-26T17:37:24;15.85;41.20
67572;SHT31;54397;47.506;19.158;2023-03-26T17:40:51;15.81;41.27
67572;SHT31;54397;47.506;19.158;2023-03-26T17:55:08;15.67;41.54
67572;SHT31;54397;47.506;19.158;2023-03-26T17:58:40;15.66;41.49
67572;SHT31;54397;47.506;19.158;2023-03-26T18:02:13;15.67;41.59
67572;SHT31;54397;47.506;19.158;2023-03-26T18:05:40;15.67;42.97
67572;SHT31;54397;47.506;19.158;2023-03-26T18:16:17;16.55;45.97
67572;SHT31;54397;47.506;19.158;2023-03-26T18:20:03;16.80;46.13
67572;SHT31;54397;47.506;19.158;2023-03-26T18:23:46;17.01;43.17
67572;SHT31;54397;47.506;19.158;2023-03-26T18:30:43;16.28;41.14
67572;SHT31;54397;47.506;19.158;2023-03-26T18:34:17;16.02;41.82
67572;SHT31;54397;47.506;19.158;2023-03-26T18:37:48;15.84;42.32
67572;SHT31;54397;47.506;19.158;2023-03-26T18:41:36;15.74;42.26
67572;SHT31;54397;47.506;19.158;2023-03-26T18:45:07;15.77;43.14
67572;SHT31;54397;47.506;19.158;2023-03-26T18:48:32;15.66;42.88
67572;SHT31;54397;47.506;19.158;2023-03-26T18:51:54;15.54;43.56
67572;SHT31;54397;47.506;19.158;2023-03-26T18:55:18;15.51;43.76
67572;SHT31;54397;47.506;19.158;2023-03-26T18:58:40;15.49;43.49
67572;SHT31;54397;47.506;19.158;2023-03-26T19:02:10;15.56;43.69
67572;SHT31;54397;47.506;19.158;2023-03-26T19:05:34;15.51;43.54
67572;SHT31;54397;47.506;19.158;2023-03-26T19:09:07;15.50;43.71
67572;SHT31;54397;47.506;19.158;2023-03-26T19:12:56;15.46;44.17
67572;SHT31;54397;47.506;19.158;2023-03-26T19:16:22;15.37;44.50
67572;SHT31;54397;47.506;19.158;2023-03-26T19:19:44;15.43;44.69
67572;SHT31;54397;47.506;19.158;2023-03-26T19:23:13;15.35;44.41
67572;SHT31;54397;47.506;19.158;2023-03-26T19:26:35;15.37;44.99
67572;SHT31;54397;47.506;19.158;2023-03-26T19:30:04;15.37;44.23
67572;SHT31;54397;47.506;19.158;2023-03-26T19:33:33;15.39;44.09
67572;SHT31;54397;47.506;19.158;2023-03-26T19:36:57;15.36;43.93
67572;SHT31;54397;47.506;19.158;2023-03-26T19:40:23;15.30;44.08
67572;SHT31;54397;47.506;19.158;2023-03-26T19:43:52;15.19;44.94
67572;SHT31;54397;47.506;19.158;2023-03-26T19:50:41;15.06;44.52
67572;SHT31;54397;47.506;19.158;2023-03-26T19:54:14;14.99;44.17
67572;SHT31;54397;47.506;19.158;2023-03-26T19:57:39;14.95;43.99
67572;SHT31;54397;47.506;19.158;2023-03-26T20:01:03;15.00;44.92
67572;SHT31;54397;47.506;19.158;2023-03-26T20:04:24;14.95;44.67
67572;SHT31;54397;47.506;19.158;2023-03-26T20:07:51;14.92;44.52
67572;SHT31;54397;47.506;19.158;2023-03-26T20:11:27;14.79;44.68
67572;SHT31;54397;47.506;19.158;2023-03-26T20:14:55;14.67;45.17
67572;SHT31;54397;47.506;19.158;2023-03-26T20:18:22;14.58;45.65
67572;SHT31;54397;47.506;19.158;2023-03-26T20:21:45;14.58;44.97
67572;SHT31;54397;47.506;19.158;2023-03-26T20:25:31;14.58;45.60
67572;SHT31;54397;47.506;19.158;2023-03-26T20:28:54;14.54;45.37
67572;SHT31;54397;47.506;19.158;2023-03-26T20:32:19;14.45;45.40
67572;SHT31;54397;47.506;19.158;2023-03-26T20:35:47;14.38;45.80
67572;SHT31;54397;47.506;19.158;2023-03-26T20:39:12;14.22;46.55
67572;SHT31;54397;47.506;19.158;2023-03-26T20:42:34;14.24;46.25
67572;SHT31;54397;47.506;19.158;2023-03-26T20:45:56;14.24;46.08
67572;SHT31;54397;47.506;19.158;2023-03-26T20:49:21;14.37;46.48
67572;SHT31;54397;47.506;19.158;2023-03-26T20:52:43;14.26;46.69
67572;SHT31;54397;47.506;19.158;2023-03-26T20:56:18;14.34;47.01
67572;SHT31;54397;47.506;19.158;2023-03-26T20:59:40;14.30;46.93
67572;SHT31;54397;47.506;19.158;2023-03-26T21:03:04;14.37;46.77
67572;SHT31;54397;47.506;19.158;2023-03-26T21:06:29;14.41;46.84
67572;SHT31;54397;47.506;19.158;2023-03-26T21:09:50;14.38;46.84
67572;SHT31;54397;47.506;19.158;2023-03-26T21:13:51;14.33;46.75
67572;SHT31;54397;47.506;19.158;2023-03-26T21:17:17;14.37;47.05
67572;SHT31;54397;47.506;19.158;2023-03-26T21:20:44;14.43;47.02
67572;SHT31;54397;47.506;19.158;2023-03-26T21:24:40;14.44;46.57
67572;SHT31;54397;47.506;19.158;2023-03-26T21:28:23;14.36;47.39
67572;SHT31;54397;47.506;19.158;2023-03-26T21:32:00;14.50;47.11
67572;SHT31;54397;47.506;19.158;2023-03-26T21:35:24;14.41;47.15
67572;SHT31;54397;47.506;19.158;2023-03-26T21:38:46;14.48;47.33
67572;SHT31;54397;47.506;19.158;2023-03-26T21:42:09;14.34;48.48
67572;SHT31;54397;47.506;19.158;2023-03-26T21:45:34;14.47;48.07
67572;SHT31;54397;47.506;19.158;2023-03-26T21:48:56;14.45;51.67
67572;SHT31;54397;47.506;19.158;2023-03-26T21:52:25;14.22;53.91
67572;SHT31;54397;47.506;19.158;2023-03-26T22:06:44;13.64;66.95
67572;SHT31;54397;47.506;19.158;2023-03-26T22:10:06;13.54;67.93
67572;SHT31;54397;47.506;19.158;2023-03-26T22:13:30;13.48;69.00
67572;SHT31;54397;47.506;19.158;2023-03-26T22:16:52;13.45;69.00
67572;SHT31;54397;47.506;19.158;2023-03-26T22:20:18;13.40;66.99
67572;SHT31;54397;47.506;19.158;2023-03-26T22:23:43;13.30;64.76
67572;SHT31;54397;47.506;19.158;2023-03-26T22:27:10;13.21;66.35
67572;SHT31;54397;47.506;19.158;2023-03-26T22:30:36;13.23;68.03
67572;SHT31;54397;47.506;19.158;2023-03-26T22:34:00;13.16;70.36
67572;SHT31;54397;47.506;19.158;2023-03-26T22:37:22;13.23;70.09
67572;SHT31;54397;47.506;19.158;2023-03-26T22:40:46;13.41;69.71
67572;SHT31;54397;47.506;19.158;2023-03-26T22:44:19;13.47;70.04
67572;SHT31;54397;47.506;19.158;2023-03-26T22:47:41;13.53;71.31
67572;SHT31;54397;47.506;19.158;2023-03-26T22:51:04;13.57;70.47
67572;SHT31;54397;47.506;19.158;2023-03-26T22:54:26;13.26;72.27
67572;SHT31;54397;47.506;19.158;2023-03-26T22:57:51;13.24;71.87
67572;SHT31;54397;47.506;19.158;2023-03-26T23:01:16;13.21;71.98
67572;SHT31;54397;47.506;19.158;2023-03-26T23:04:38;13.17;72.12
67572;SHT31;54397;47.506;19.158;2023-03-26T23:08:00;12.99;74.31
67572;SHT31;54397;47.506;19.158;2023-03-26T23:11:22;12.80;74.78
67572;SHT31;54397;47.506;19.158;2023-03-26T23:14:48;12.68;74.11
67572;SHT31;54397;47.506;19.158;2023-03-26T23:18:13;12.70;73.79
67572;SHT31;54397;47.506;19.158;2023-03-26T23:21:35;12.68;75.40
67572;SHT31;54397;47.506;19.158;2023-03-26T23:24:58;12.73;74.29
67572;SHT31;54397;47.506;19.158;2023-03-26T23:28:19;12.79;74.99
67572;SHT31;54397;47.506;19.158;2023-03-26T23:31:42;12.79;75.05
67572;SHT31;54397;47.506;19.158;2023-03-26T23:35:04;12.78;74.55
67572;SHT31;54397;47.506;19.158;2023-03-26T23:38:27;12.72;74.20
67572;SHT31;54397;47.506;19.158;2023-03-26T23:42:04;12.61;75.16
67572;SHT31;54397;47.506;19.158;2023-03-26T23:45:29;12.46;75.67
67572;SHT31;54397;47.506;19.158;2023-03-26T23:48:51;12.48;75.60
67572;SHT31;54397;47.506;19.158;2023-03-26T23:52:13;12.63;75.34
67572;SHT31;54397;47.506;19.158;2023-03-26T23:55:40;12.46;75.86
67572;SHT31;54397;47.506;19.158;2023-03-26T23:59:03;12.45;76.89
